createdAt,value
2019-01-15T00:00:03.832Z,1012.46
2019-01-15T00:00:30.016Z,1012.49
2019-01-15T00:00:56.120Z,1012.45
2019-01-15T00:01:22.270Z,1012.47
2019-01-15T00:01:48.437Z,1012.44
2019-01-15T00:02:14.545Z,1012.44
2019-01-15T00:02:40.681Z,1012.4
2019-01-15T00:03:06.781Z,1012.45
2019-01-15T00:03:32.894Z,1012.45
2019-01-15T00:03:59.000Z,1012.43
2019-01-15T00:04:25.107Z,1012.39
2019-01-15T00:04:51.275Z,1012.43
2019-01-15T00:05:17.488Z,1012.42
2019-01-15T00:05:43.584Z,1012.41
2019-01-15T00:06:09.688Z,1012.42
2019-01-15T00:06:35.792Z,1012.4
2019-01-15T00:07:01.899Z,1012.38
2019-01-15T00:07:28.026Z,1012.42
2019-01-15T00:07:54.135Z,1012.41
2019-01-15T00:08:20.242Z,1012.42
2019-01-15T00:08:46.350Z,1012.43
2019-01-15T00:09:12.463Z,1012.44
2019-01-15T00:09:38.804Z,1012.44
2019-01-15T00:10:04.946Z,1012.49
2019-01-15T00:10:31.058Z,1012.45
2019-01-15T00:10:57.214Z,1012.44
2019-01-15T00:11:23.316Z,1012.48
2019-01-15T00:11:49.698Z,1012.45
2019-01-15T00:12:16.814Z,1012.48
2019-01-15T00:12:42.957Z,1012.45
2019-01-15T00:13:09.142Z,1012.45
2019-01-15T00:13:35.303Z,1012.41
2019-01-15T00:14:01.433Z,1012.39
2019-01-15T00:14:27.551Z,1012.42
2019-01-15T00:14:53.649Z,1012.42
2019-01-15T00:15:19.768Z,1012.47
2019-01-15T00:15:45.906Z,1012.44
2019-01-15T00:16:12.067Z,1012.42
2019-01-15T00:16:41.214Z,1012.38
2019-01-15T00:17:07.420Z,1012.43
2019-01-15T00:17:33.566Z,1012.44
2019-01-15T00:17:59.725Z,1012.43
2019-01-15T00:18:25.868Z,1012.45
2019-01-15T00:18:52.372Z,1012.5
2019-01-15T00:19:18.480Z,1012.47
2019-01-15T00:19:44.942Z,1012.52
2019-01-15T00:20:11.104Z,1012.52
2019-01-15T00:20:37.270Z,1012.5
2019-01-15T00:21:03.384Z,1012.49
2019-01-15T00:21:29.503Z,1012.47
2019-01-15T00:21:55.612Z,1012.48
2019-01-15T00:22:21.724Z,1012.46
2019-01-15T00:22:47.837Z,1012.41
2019-01-15T00:23:15.082Z,1012.46
2019-01-15T00:23:41.192Z,1012.39
2019-01-15T00:24:07.390Z,1012.38
2019-01-15T00:24:33.497Z,1012.38
2019-01-15T00:24:59.860Z,1012.46
2019-01-15T00:25:26.233Z,1012.44
2019-01-15T00:25:52.330Z,1012.47
2019-01-15T00:26:18.457Z,1012.43
2019-01-15T00:26:44.626Z,1012.42
2019-01-15T00:27:10.742Z,1012.44
2019-01-15T00:27:36.849Z,1012.44
2019-01-15T00:28:02.980Z,1012.47
2019-01-15T00:28:29.101Z,1012.41
2019-01-15T00:28:55.202Z,1012.36
2019-01-15T00:29:21.316Z,1012.41
2019-01-15T00:29:47.413Z,1012.4
2019-01-15T00:30:13.521Z,1012.44
2019-01-15T00:30:39.625Z,1012.41
2019-01-15T00:31:05.728Z,1012.41
2019-01-15T00:31:31.855Z,1012.39
2019-01-15T00:31:57.965Z,1012.4
2019-01-15T00:32:24.066Z,1012.36
2019-01-15T00:32:50.200Z,1012.32
2019-01-15T00:33:16.303Z,1012.38
2019-01-15T00:33:42.410Z,1012.39
2019-01-15T00:34:08.528Z,1012.39
2019-01-15T00:34:34.737Z,1012.36
2019-01-15T00:35:00.845Z,1012.34
2019-01-15T00:35:26.954Z,1012.34
2019-01-15T00:35:53.133Z,1012.32
2019-01-15T00:36:19.287Z,1012.29
2019-01-15T00:36:46.393Z,1012.31
2019-01-15T00:37:12.537Z,1012.3
2019-01-15T00:37:38.721Z,1012.3
2019-01-15T00:38:04.863Z,1012.34
2019-01-15T00:38:30.967Z,1012.28
2019-01-15T00:38:57.073Z,1012.31
2019-01-15T00:39:23.181Z,1012.34
2019-01-15T00:39:49.285Z,1012.33
2019-01-15T00:40:15.390Z,1012.3
2019-01-15T00:40:41.519Z,1012.34
2019-01-15T00:41:07.631Z,1012.36
2019-01-15T00:41:33.735Z,1012.35
2019-01-15T00:41:59.839Z,1012.37
2019-01-15T00:42:26.934Z,1012.35
2019-01-15T00:42:53.077Z,1012.4
2019-01-15T00:43:19.187Z,1012.34
2019-01-15T00:43:45.311Z,1012.34
2019-01-15T00:44:11.445Z,1012.36
2019-01-15T00:44:37.550Z,1012.36
2019-01-15T00:45:03.658Z,1012.34
2019-01-15T00:45:29.772Z,1012.37
2019-01-15T00:45:55.900Z,1012.29
2019-01-15T00:46:22.030Z,1012.33
2019-01-15T00:46:48.136Z,1012.33
2019-01-15T00:47:14.238Z,1012.33
2019-01-15T00:47:40.338Z,1012.29
2019-01-15T00:48:06.440Z,1012.31
2019-01-15T00:48:32.544Z,1012.35
2019-01-15T00:48:58.648Z,1012.34
2019-01-15T00:49:24.751Z,1012.31
2019-01-15T00:49:50.853Z,1012.31
2019-01-15T00:50:16.984Z,1012.37
2019-01-15T00:50:43.090Z,1012.37
2019-01-15T00:51:09.191Z,1012.33
2019-01-15T00:51:35.300Z,1012.37
2019-01-15T00:52:01.405Z,1012.35
2019-01-15T00:52:27.510Z,1012.38
2019-01-15T00:52:53.609Z,1012.37
2019-01-15T00:53:19.716Z,1012.39
2019-01-15T00:53:45.815Z,1012.37
2019-01-15T00:54:11.920Z,1012.43
2019-01-15T00:54:38.019Z,1012.39
2019-01-15T00:55:04.127Z,1012.41
2019-01-15T00:55:30.246Z,1012.43
2019-01-15T00:55:56.359Z,1012.45
2019-01-15T00:56:22.461Z,1012.47
2019-01-15T00:56:48.569Z,1012.44
2019-01-15T00:57:14.675Z,1012.48
2019-01-15T00:57:40.779Z,1012.51
2019-01-15T00:58:06.886Z,1012.51
2019-01-15T00:58:32.991Z,1012.53
2019-01-15T00:58:59.121Z,1012.47
2019-01-15T00:59:25.230Z,1012.52
2019-01-15T00:59:51.337Z,1012.53
2019-01-15T01:00:17.444Z,1012.47
2019-01-15T01:00:43.571Z,1012.5
2019-01-15T01:01:09.677Z,1012.49
2019-01-15T01:01:35.777Z,1012.51
2019-01-15T01:02:01.884Z,1012.47
2019-01-15T01:02:27.992Z,1012.5
2019-01-15T01:02:54.096Z,1012.5
2019-01-15T01:03:20.196Z,1012.51
2019-01-15T01:03:46.308Z,1012.52
2019-01-15T01:04:12.411Z,1012.5
2019-01-15T01:04:38.515Z,1012.53
2019-01-15T01:05:04.622Z,1012.51
2019-01-15T01:05:30.756Z,1012.52
2019-01-15T01:05:56.916Z,1012.52
2019-01-15T01:06:22.965Z,1012.49
2019-01-15T01:06:49.092Z,1012.43
2019-01-15T01:07:15.207Z,1012.42
2019-01-15T01:07:41.304Z,1012.47
2019-01-15T01:08:07.435Z,1012.46
2019-01-15T01:08:33.544Z,1012.44
2019-01-15T01:08:59.648Z,1012.43
2019-01-15T01:09:25.754Z,1012.42
2019-01-15T01:09:51.861Z,1012.41
2019-01-15T01:10:17.994Z,1012.43
2019-01-15T01:10:44.128Z,1012.4
2019-01-15T01:11:10.269Z,1012.42
2019-01-15T01:11:36.370Z,1012.38
2019-01-15T01:12:02.479Z,1012.4
2019-01-15T01:12:29.577Z,1012.38
2019-01-15T01:12:55.679Z,1012.32
2019-01-15T01:13:21.787Z,1012.37
2019-01-15T01:13:47.894Z,1012.37
2019-01-15T01:14:14.003Z,1012.36
2019-01-15T01:14:40.112Z,1012.37
2019-01-15T01:15:06.207Z,1012.41
2019-01-15T01:15:32.313Z,1012.44
2019-01-15T01:15:58.424Z,1012.42
2019-01-15T01:16:24.529Z,1012.44
2019-01-15T01:16:50.638Z,1012.43
2019-01-15T01:17:16.771Z,1012.46
2019-01-15T01:17:42.906Z,1012.45
2019-01-15T01:18:09.006Z,1012.45
2019-01-15T01:18:35.113Z,1012.49
2019-01-15T01:19:01.214Z,1012.48
2019-01-15T01:19:27.321Z,1012.43
2019-01-15T01:19:53.429Z,1012.46
2019-01-15T01:20:19.532Z,1012.46
2019-01-15T01:20:45.634Z,1012.45
2019-01-15T01:21:11.740Z,1012.47
2019-01-15T01:21:37.867Z,1012.44
2019-01-15T01:22:03.972Z,1012.47
2019-01-15T01:22:30.072Z,1012.43
2019-01-15T01:22:56.179Z,1012.42
2019-01-15T01:23:22.288Z,1012.43
2019-01-15T01:23:48.389Z,1012.46
2019-01-15T01:24:14.493Z,1012.42
2019-01-15T01:24:40.598Z,1012.39
2019-01-15T01:25:06.736Z,1012.43
2019-01-15T01:25:32.836Z,1012.43
2019-01-15T01:25:58.946Z,1012.45
2019-01-15T01:26:25.047Z,1012.43
2019-01-15T01:26:51.151Z,1012.44
2019-01-15T01:27:17.254Z,1012.44
2019-01-15T01:27:43.354Z,1012.46
2019-01-15T01:28:09.485Z,1012.46
2019-01-15T01:28:35.620Z,1012.41
2019-01-15T01:29:01.726Z,1012.47
2019-01-15T01:29:27.847Z,1012.49
2019-01-15T01:29:53.961Z,1012.44
2019-01-15T01:30:20.068Z,1012.41
2019-01-15T01:30:46.173Z,1012.46
2019-01-15T01:31:12.273Z,1012.44
2019-01-15T01:31:38.371Z,1012.41
2019-01-15T01:32:04.482Z,1012.43
2019-01-15T01:32:30.582Z,1012.43
2019-01-15T01:32:56.689Z,1012.46
2019-01-15T01:33:22.793Z,1012.48
2019-01-15T01:33:48.895Z,1012.52
2019-01-15T01:34:15.028Z,1012.56
2019-01-15T01:34:41.139Z,1012.56
2019-01-15T01:35:07.241Z,1012.59
2019-01-15T01:35:33.372Z,1012.61
2019-01-15T01:35:59.479Z,1012.65
2019-01-15T01:36:25.611Z,1012.63
2019-01-15T01:36:51.723Z,1012.62
2019-01-15T01:37:17.891Z,1012.63
2019-01-15T01:37:44.000Z,1012.64
2019-01-15T01:38:10.108Z,1012.63
2019-01-15T01:38:36.214Z,1012.67
2019-01-15T01:39:02.315Z,1012.64
2019-01-15T01:39:28.416Z,1012.67
2019-01-15T01:39:54.530Z,1012.65
2019-01-15T01:40:20.657Z,1012.68
2019-01-15T01:40:46.790Z,1012.65
2019-01-15T01:41:12.935Z,1012.67
2019-01-15T01:41:39.055Z,1012.65
2019-01-15T01:42:05.169Z,1012.72
2019-01-15T01:42:32.266Z,1012.7
2019-01-15T01:42:58.373Z,1012.68
2019-01-15T01:43:24.481Z,1012.74
2019-01-15T01:43:50.587Z,1012.71
2019-01-15T01:44:16.693Z,1012.71
2019-01-15T01:44:42.795Z,1012.72
2019-01-15T01:45:08.920Z,1012.72
2019-01-15T01:45:35.035Z,1012.7
2019-01-15T01:46:01.170Z,1012.73
2019-01-15T01:46:27.274Z,1012.74
2019-01-15T01:46:53.438Z,1012.73
2019-01-15T01:47:19.572Z,1012.72
2019-01-15T01:47:45.708Z,1012.65
2019-01-15T01:48:11.812Z,1012.65
2019-01-15T01:48:37.920Z,1012.64
2019-01-15T01:49:04.019Z,1012.64
2019-01-15T01:49:30.121Z,1012.55
2019-01-15T01:49:56.225Z,1012.56
2019-01-15T01:50:22.353Z,1012.5
2019-01-15T01:50:48.585Z,1012.47
2019-01-15T01:51:14.685Z,1012.4
2019-01-15T01:51:40.786Z,1012.4
2019-01-15T01:52:06.906Z,1012.47
2019-01-15T01:52:33.019Z,1012.45
2019-01-15T01:52:59.126Z,1012.48
2019-01-15T01:53:25.258Z,1012.52
2019-01-15T01:53:51.358Z,1012.43
2019-01-15T01:54:17.460Z,1012.49
2019-01-15T01:54:44.071Z,1012.43
2019-01-15T01:55:10.164Z,1012.41
2019-01-15T01:55:36.265Z,1012.44
2019-01-15T01:56:02.377Z,1012.42
2019-01-15T01:56:28.476Z,1012.4
2019-01-15T01:56:54.581Z,1012.45
2019-01-15T01:57:20.689Z,1012.37
2019-01-15T01:57:46.790Z,1012.4
2019-01-15T01:58:12.895Z,1012.38
2019-01-15T01:58:39.000Z,1012.38
2019-01-15T01:59:05.105Z,1012.37
2019-01-15T01:59:31.210Z,1012.38
2019-01-15T01:59:57.307Z,1012.39
2019-01-15T02:00:23.442Z,1012.43
2019-01-15T02:00:49.549Z,1012.44
2019-01-15T02:01:15.651Z,1012.47
2019-01-15T02:01:41.758Z,1012.5
2019-01-15T02:02:07.862Z,1012.47
2019-01-15T02:02:33.992Z,1012.48
2019-01-15T02:03:00.109Z,1012.49
2019-01-15T02:03:26.198Z,1012.44
2019-01-15T02:03:52.303Z,1012.48
2019-01-15T02:04:18.413Z,1012.52
2019-01-15T02:04:44.521Z,1012.43
2019-01-15T02:05:10.627Z,1012.46
2019-01-15T02:05:36.728Z,1012.45
2019-01-15T02:06:02.827Z,1012.43
2019-01-15T02:06:28.954Z,1012.39
2019-01-15T02:06:55.058Z,1012.39
2019-01-15T02:07:21.165Z,1012.42
2019-01-15T02:07:47.272Z,1012.42
2019-01-15T02:08:13.377Z,1012.44
2019-01-15T02:08:39.488Z,1012.41
2019-01-15T02:09:05.589Z,1012.42
2019-01-15T02:09:31.705Z,1012.41
2019-01-15T02:09:57.828Z,1012.37
2019-01-15T02:10:23.937Z,1012.38
2019-01-15T02:10:50.038Z,1012.34
2019-01-15T02:11:16.178Z,1012.36
2019-01-15T02:11:42.283Z,1012.35
2019-01-15T02:12:08.391Z,1012.31
2019-01-15T02:12:36.913Z,1012.33
2019-01-15T02:13:01.645Z,1012.28
2019-01-15T02:13:27.750Z,1012.3
2019-01-15T02:13:54.841Z,1012.32
2019-01-15T02:14:20.944Z,1012.24
2019-01-15T02:14:47.052Z,1012.23
2019-01-15T02:15:13.161Z,1012.21
2019-01-15T02:15:39.268Z,1012.26
2019-01-15T02:16:05.369Z,1012.18
2019-01-15T02:16:31.468Z,1012.21
2019-01-15T02:16:57.573Z,1012.21
2019-01-15T02:17:23.676Z,1012.19
2019-01-15T02:17:49.778Z,1012.22
2019-01-15T02:18:15.913Z,1012.22
2019-01-15T02:18:42.015Z,1012.2
2019-01-15T02:19:08.115Z,1012.21
2019-01-15T02:19:34.271Z,1012.2
2019-01-15T02:20:00.318Z,1012.2
2019-01-15T02:20:26.428Z,1012.2
2019-01-15T02:20:52.533Z,1012.13
2019-01-15T02:21:18.636Z,1012.15
2019-01-15T02:21:44.766Z,1012.19
2019-01-15T02:22:10.872Z,1012.17
2019-01-15T02:22:36.979Z,1012.13
2019-01-15T02:23:03.081Z,1012.17
2019-01-15T02:23:29.185Z,1012.21
2019-01-15T02:23:55.326Z,1012.19
2019-01-15T02:24:21.431Z,1012.16
2019-01-15T02:24:47.535Z,1012.16
2019-01-15T02:25:13.712Z,1012.12
2019-01-15T02:25:39.837Z,1012.16
2019-01-15T02:26:05.942Z,1012.12
2019-01-15T02:26:32.042Z,1012.16
2019-01-15T02:26:58.147Z,1012.15
2019-01-15T02:27:24.256Z,1012.13
2019-01-15T02:27:50.362Z,1012.13
2019-01-15T02:28:16.460Z,1012.11
2019-01-15T02:28:42.571Z,1012.11
2019-01-15T02:29:08.670Z,1012.09
2019-01-15T02:29:34.778Z,1012.1
2019-01-15T02:30:00.889Z,1012.04
2019-01-15T02:30:26.990Z,1012.12
2019-01-15T02:30:53.119Z,1012.12
2019-01-15T02:31:19.225Z,1012.1
2019-01-15T02:31:45.363Z,1012.13
2019-01-15T02:32:11.470Z,1012.12
2019-01-15T02:32:37.601Z,1012.15
2019-01-15T02:33:03.702Z,1012.15
2019-01-15T02:33:29.807Z,1012.16
2019-01-15T02:33:55.917Z,1012.2
2019-01-15T02:34:22.045Z,1012.19
2019-01-15T02:34:48.159Z,1012.25
2019-01-15T02:35:14.267Z,1012.18
2019-01-15T02:35:40.377Z,1012.22
2019-01-15T02:36:06.518Z,1012.22
2019-01-15T02:36:32.626Z,1012.23
2019-01-15T02:36:58.729Z,1012.2
2019-01-15T02:37:24.841Z,1012.2
2019-01-15T02:37:50.965Z,1012.15
2019-01-15T02:38:17.073Z,1012.14
2019-01-15T02:38:43.172Z,1012.16
2019-01-15T02:39:09.293Z,1012.16
2019-01-15T02:39:35.387Z,1012.15
2019-01-15T02:40:01.523Z,1012.14
2019-01-15T02:40:27.619Z,1012.12
2019-01-15T02:40:53.761Z,1012.16
2019-01-15T02:41:19.865Z,1012.07
2019-01-15T02:41:45.986Z,1012.1
2019-01-15T02:42:12.092Z,1012.09
2019-01-15T02:42:46.017Z,1012.08
2019-01-15T02:43:06.314Z,1012.08
2019-01-15T02:43:32.415Z,1012.04
2019-01-15T02:43:58.552Z,1012.08
2019-01-15T02:44:24.687Z,1012.07
2019-01-15T02:44:50.849Z,1012.04
2019-01-15T02:45:16.952Z,1012.05
2019-01-15T02:45:43.073Z,1012.11
2019-01-15T02:46:09.199Z,1012.07
2019-01-15T02:46:35.332Z,1012.16
2019-01-15T02:47:01.442Z,1012.08
2019-01-15T02:47:27.542Z,1012.11
2019-01-15T02:47:53.677Z,1012.08
2019-01-15T02:48:19.809Z,1012.1
2019-01-15T02:48:45.935Z,1012.13
2019-01-15T02:49:12.037Z,1012.14
2019-01-15T02:49:38.179Z,1012.1
2019-01-15T02:50:04.284Z,1012.12
2019-01-15T02:50:30.421Z,1012.12
2019-01-15T02:50:56.525Z,1012.09
2019-01-15T02:51:22.628Z,1012.09
2019-01-15T02:51:48.724Z,1012.01
2019-01-15T02:52:14.858Z,1012.09
2019-01-15T02:52:40.966Z,1012.06
2019-01-15T02:53:07.093Z,1012.06
2019-01-15T02:53:33.226Z,1012.04
2019-01-15T02:53:59.333Z,1012.09
2019-01-15T02:54:25.436Z,1012.05
2019-01-15T02:54:51.537Z,1012.05
2019-01-15T02:55:17.645Z,1012.14
2019-01-15T02:55:43.752Z,1012.09
2019-01-15T02:56:09.918Z,1012.08
2019-01-15T02:56:36.021Z,1012.04
2019-01-15T02:57:02.146Z,1012.09
2019-01-15T02:57:28.283Z,1012.07
2019-01-15T02:57:54.442Z,1012.06
2019-01-15T02:58:20.547Z,1012.09
2019-01-15T02:58:46.647Z,1012.09
2019-01-15T02:59:12.785Z,1012.06
2019-01-15T02:59:38.910Z,1012.02
2019-01-15T03:00:05.013Z,1011.97
2019-01-15T03:00:31.119Z,1012.01
2019-01-15T03:00:57.223Z,1012.02
2019-01-15T03:01:23.333Z,1012.04
2019-01-15T03:01:49.433Z,1011.98
2019-01-15T03:02:15.571Z,1011.99
2019-01-15T03:02:41.676Z,1012.06
2019-01-15T03:03:07.810Z,1012.05
2019-01-15T03:03:33.916Z,1012.06
2019-01-15T03:04:00.024Z,1012.11
2019-01-15T03:04:26.131Z,1012.12
2019-01-15T03:04:52.264Z,1012.08
2019-01-15T03:05:18.388Z,1012.13
2019-01-15T03:05:44.529Z,1012.07
2019-01-15T03:06:10.656Z,1012.11
2019-01-15T03:06:36.770Z,1012.1
2019-01-15T03:07:02.872Z,1012.04
2019-01-15T03:07:28.981Z,1012.1
2019-01-15T03:07:55.093Z,1012.08
2019-01-15T03:08:21.185Z,1012.04
2019-01-15T03:08:47.321Z,1012.09
2019-01-15T03:09:13.446Z,1012.01
2019-01-15T03:09:39.541Z,1012.03
2019-01-15T03:10:05.646Z,1012.02
2019-01-15T03:10:31.757Z,1012.02
2019-01-15T03:10:57.898Z,1012.07
2019-01-15T03:11:23.967Z,1012.01
2019-01-15T03:11:50.073Z,1012.02
2019-01-15T03:12:16.176Z,1011.98
2019-01-15T03:12:42.282Z,1012
2019-01-15T03:13:10.359Z,1011.99
2019-01-15T03:13:36.467Z,1012.01
2019-01-15T03:14:02.569Z,1012.01
2019-01-15T03:14:28.672Z,1011.94
2019-01-15T03:14:54.779Z,1011.94
2019-01-15T03:15:20.880Z,1011.95
2019-01-15T03:15:46.981Z,1011.97
2019-01-15T03:16:13.084Z,1011.95
2019-01-15T03:16:39.195Z,1011.96
2019-01-15T03:17:05.299Z,1011.96
2019-01-15T03:17:31.404Z,1011.95
2019-01-15T03:17:57.567Z,1011.96
2019-01-15T03:18:23.666Z,1011.96
2019-01-15T03:18:49.799Z,1011.96
2019-01-15T03:19:15.906Z,1011.95
2019-01-15T03:19:42.013Z,1012
2019-01-15T03:20:08.114Z,1011.97
2019-01-15T03:20:34.216Z,1012.01
2019-01-15T03:21:00.321Z,1012
2019-01-15T03:21:26.505Z,1011.91
2019-01-15T03:21:52.671Z,1011.92
2019-01-15T03:22:18.773Z,1011.9
2019-01-15T03:22:44.877Z,1011.9
2019-01-15T03:23:10.977Z,1011.87
2019-01-15T03:23:37.145Z,1011.93
2019-01-15T03:24:03.276Z,1011.88
2019-01-15T03:24:29.379Z,1011.85
2019-01-15T03:24:55.514Z,1011.83
2019-01-15T03:25:21.651Z,1011.87
2019-01-15T03:25:47.791Z,1011.86
2019-01-15T03:26:13.920Z,1011.86
2019-01-15T03:26:40.056Z,1011.85
2019-01-15T03:27:06.180Z,1011.87
2019-01-15T03:27:32.318Z,1011.95
2019-01-15T03:27:58.450Z,1011.91
2019-01-15T03:28:24.608Z,1011.9
2019-01-15T03:28:50.708Z,1011.92
2019-01-15T03:29:16.841Z,1011.89
2019-01-15T03:29:42.945Z,1011.9
2019-01-15T03:30:09.083Z,1011.89
2019-01-15T03:30:35.251Z,1011.89
2019-01-15T03:31:01.349Z,1011.91
2019-01-15T03:31:27.523Z,1011.81
2019-01-15T03:31:53.623Z,1011.9
2019-01-15T03:32:19.778Z,1011.81
2019-01-15T03:32:45.974Z,1011.85
2019-01-15T03:33:12.176Z,1011.78
2019-01-15T03:33:38.324Z,1011.8
2019-01-15T03:34:04.426Z,1011.81
2019-01-15T03:34:30.536Z,1011.82
2019-01-15T03:34:56.671Z,1011.88
2019-01-15T03:35:22.803Z,1011.83
2019-01-15T03:35:48.964Z,1011.84
2019-01-15T03:36:15.096Z,1011.86
2019-01-15T03:36:42.194Z,1011.88
2019-01-15T03:37:08.326Z,1011.88
2019-01-15T03:37:34.459Z,1011.9
2019-01-15T03:38:00.561Z,1011.83
2019-01-15T03:38:26.688Z,1011.87
2019-01-15T03:38:52.800Z,1011.83
2019-01-15T03:39:18.894Z,1011.92
2019-01-15T03:39:45.060Z,1011.89
2019-01-15T03:40:11.165Z,1011.86
2019-01-15T03:40:37.302Z,1011.81
2019-01-15T03:41:03.398Z,1011.84
2019-01-15T03:41:29.511Z,1011.86
2019-01-15T03:41:55.618Z,1011.84
2019-01-15T03:42:21.716Z,1011.82
2019-01-15T03:42:47.823Z,1011.75
2019-01-15T03:43:14.000Z,1011.77
2019-01-15T03:43:40.102Z,1011.77
2019-01-15T03:44:06.205Z,1011.75
2019-01-15T03:44:32.331Z,1011.74
2019-01-15T03:44:58.447Z,1011.73
2019-01-15T03:45:25.541Z,1011.79
2019-01-15T03:45:51.650Z,1011.79
2019-01-15T03:46:19.739Z,1011.78
2019-01-15T03:46:45.865Z,1011.75
2019-01-15T03:47:11.967Z,1011.72
2019-01-15T03:47:38.075Z,1011.68
2019-01-15T03:48:04.180Z,1011.72
2019-01-15T03:48:30.310Z,1011.73
2019-01-15T03:48:56.419Z,1011.69
2019-01-15T03:49:22.523Z,1011.71
2019-01-15T03:49:48.660Z,1011.73
2019-01-15T03:50:14.761Z,1011.73
2019-01-15T03:50:40.891Z,1011.75
2019-01-15T03:51:07.033Z,1011.71
2019-01-15T03:51:33.134Z,1011.69
2019-01-15T03:51:59.245Z,1011.7
2019-01-15T03:52:25.396Z,1011.73
2019-01-15T03:52:51.506Z,1011.66
2019-01-15T03:53:17.612Z,1011.69
2019-01-15T03:53:43.715Z,1011.74
2019-01-15T03:54:09.828Z,1011.75
2019-01-15T03:54:35.957Z,1011.74
2019-01-15T03:55:02.078Z,1011.71
2019-01-15T03:55:28.203Z,1011.73
2019-01-15T03:55:54.314Z,1011.76
2019-01-15T03:56:20.443Z,1011.77
2019-01-15T03:56:46.542Z,1011.76
2019-01-15T03:57:12.718Z,1011.79
2019-01-15T03:57:38.827Z,1011.75
2019-01-15T03:58:04.926Z,1011.81
2019-01-15T03:58:31.027Z,1011.82
2019-01-15T03:58:57.167Z,1011.84
2019-01-15T03:59:23.269Z,1011.8
2019-01-15T03:59:49.402Z,1011.8
2019-01-15T04:00:15.562Z,1011.72
2019-01-15T04:00:41.669Z,1011.85
2019-01-15T04:01:07.770Z,1011.82
2019-01-15T04:01:33.942Z,1011.8
2019-01-15T04:02:00.048Z,1011.79
2019-01-15T04:02:26.177Z,1011.81
2019-01-15T04:02:52.291Z,1011.83
2019-01-15T04:03:18.412Z,1011.83
2019-01-15T04:03:44.519Z,1011.83
2019-01-15T04:04:10.661Z,1011.79
2019-01-15T04:04:36.792Z,1011.84
2019-01-15T04:05:02.933Z,1011.82
2019-01-15T04:05:29.093Z,1011.8
2019-01-15T04:05:55.233Z,1011.76
2019-01-15T04:06:21.347Z,1011.74
2019-01-15T04:06:47.455Z,1011.79
2019-01-15T04:07:13.551Z,1011.78
2019-01-15T04:07:39.664Z,1011.8
2019-01-15T04:08:05.788Z,1011.76
2019-01-15T04:08:31.900Z,1011.73
2019-01-15T04:08:58.009Z,1011.73
2019-01-15T04:09:24.118Z,1011.71
2019-01-15T04:09:50.223Z,1011.72
2019-01-15T04:10:16.353Z,1011.64
2019-01-15T04:10:42.456Z,1011.64
2019-01-15T04:11:08.560Z,1011.65
2019-01-15T04:11:34.667Z,1011.6
2019-01-15T04:12:00.774Z,1011.62
2019-01-15T04:12:26.885Z,1011.58
2019-01-15T04:12:52.980Z,1011.6
2019-01-15T04:13:21.915Z,1011.54
2019-01-15T04:13:48.140Z,1011.52
2019-01-15T04:14:14.272Z,1011.54
2019-01-15T04:14:40.393Z,1011.48
2019-01-15T04:15:06.489Z,1011.49
2019-01-15T04:15:32.588Z,1011.48
2019-01-15T04:15:58.727Z,1011.45
2019-01-15T04:16:24.836Z,1011.46
2019-01-15T04:16:50.928Z,1011.43
2019-01-15T04:17:17.060Z,1011.46
2019-01-15T04:17:43.160Z,1011.48
2019-01-15T04:18:09.270Z,1011.5
2019-01-15T04:18:35.373Z,1011.44
2019-01-15T04:19:01.488Z,1011.47
2019-01-15T04:19:27.614Z,1011.46
2019-01-15T04:19:53.719Z,1011.52
2019-01-15T04:20:19.825Z,1011.5
2019-01-15T04:20:45.960Z,1011.56
2019-01-15T04:21:12.090Z,1011.54
2019-01-15T04:21:38.229Z,1011.52
2019-01-15T04:22:04.329Z,1011.55
2019-01-15T04:22:30.496Z,1011.55
2019-01-15T04:22:56.628Z,1011.54
2019-01-15T04:23:22.731Z,1011.59
2019-01-15T04:23:48.837Z,1011.59
2019-01-15T04:24:14.947Z,1011.61
2019-01-15T04:24:41.053Z,1011.61
2019-01-15T04:25:07.194Z,1011.64
2019-01-15T04:25:33.287Z,1011.59
2019-01-15T04:25:59.472Z,1011.64
2019-01-15T04:26:25.576Z,1011.64
2019-01-15T04:26:51.710Z,1011.66
2019-01-15T04:27:17.810Z,1011.67
2019-01-15T04:27:43.913Z,1011.62
2019-01-15T04:28:10.024Z,1011.66
2019-01-15T04:28:36.126Z,1011.66
2019-01-15T04:29:02.230Z,1011.66
2019-01-15T04:29:28.392Z,1011.64
2019-01-15T04:29:54.495Z,1011.71
2019-01-15T04:30:20.608Z,1011.66
2019-01-15T04:30:46.752Z,1011.66
2019-01-15T04:31:12.845Z,1011.69
2019-01-15T04:31:38.972Z,1011.66
2019-01-15T04:32:05.080Z,1011.69
2019-01-15T04:32:31.183Z,1011.66
2019-01-15T04:32:57.316Z,1011.64
2019-01-15T04:33:23.417Z,1011.66
2019-01-15T04:33:49.532Z,1011.64
2019-01-15T04:34:15.659Z,1011.65
2019-01-15T04:34:41.764Z,1011.6
2019-01-15T04:35:07.868Z,1011.65
2019-01-15T04:35:33.973Z,1011.64
2019-01-15T04:36:00.074Z,1011.67
2019-01-15T04:36:26.209Z,1011.68
2019-01-15T04:36:52.341Z,1011.68
2019-01-15T04:37:18.453Z,1011.68
2019-01-15T04:37:44.551Z,1011.66
2019-01-15T04:38:10.655Z,1011.71
2019-01-15T04:38:36.758Z,1011.72
2019-01-15T04:39:02.863Z,1011.67
2019-01-15T04:39:29.003Z,1011.67
2019-01-15T04:39:55.126Z,1011.69
2019-01-15T04:40:21.258Z,1011.68
2019-01-15T04:40:47.397Z,1011.65
2019-01-15T04:41:13.536Z,1011.69
2019-01-15T04:41:39.668Z,1011.65
2019-01-15T04:42:05.776Z,1011.66
2019-01-15T04:42:31.882Z,1011.65
2019-01-15T04:42:57.992Z,1011.62
2019-01-15T04:43:25.378Z,1011.64
2019-01-15T04:43:51.485Z,1011.62
2019-01-15T04:44:17.585Z,1011.61
2019-01-15T04:44:43.687Z,1011.62
2019-01-15T04:45:09.788Z,1011.63
2019-01-15T04:45:35.893Z,1011.59
2019-01-15T04:46:01.998Z,1011.58
2019-01-15T04:46:28.156Z,1011.57
2019-01-15T04:46:54.255Z,1011.53
2019-01-15T04:47:20.363Z,1011.55
2019-01-15T04:47:46.495Z,1011.5
2019-01-15T04:48:12.638Z,1011.53
2019-01-15T04:48:38.744Z,1011.54
2019-01-15T04:49:04.858Z,1011.56
2019-01-15T04:49:30.958Z,1011.51
2019-01-15T04:49:57.067Z,1011.54
2019-01-15T04:50:23.252Z,1011.49
2019-01-15T04:50:49.354Z,1011.49
2019-01-15T04:51:15.461Z,1011.52
2019-01-15T04:51:41.601Z,1011.54
2019-01-15T04:52:07.727Z,1011.45
2019-01-15T04:52:33.836Z,1011.5
2019-01-15T04:52:59.942Z,1011.46
2019-01-15T04:53:26.077Z,1011.52
2019-01-15T04:53:52.179Z,1011.51
2019-01-15T04:54:18.284Z,1011.53
2019-01-15T04:54:44.394Z,1011.54
2019-01-15T04:55:10.494Z,1011.52
2019-01-15T04:55:36.605Z,1011.49
2019-01-15T04:56:02.737Z,1011.53
2019-01-15T04:56:28.848Z,1011.54
2019-01-15T04:56:54.947Z,1011.51
2019-01-15T04:57:21.058Z,1011.53
2019-01-15T04:57:47.193Z,1011.53
2019-01-15T04:58:13.302Z,1011.54
2019-01-15T04:58:39.411Z,1011.52
2019-01-15T04:59:06.502Z,1011.46
2019-01-15T04:59:32.641Z,1011.59
2019-01-15T04:59:58.773Z,1011.52
2019-01-15T05:00:24.876Z,1011.49
2019-01-15T05:00:51.017Z,1011.53
2019-01-15T05:01:17.119Z,1011.53
2019-01-15T05:01:43.218Z,1011.53
2019-01-15T05:02:09.321Z,1011.5
2019-01-15T05:02:35.439Z,1011.58
2019-01-15T05:03:01.542Z,1011.56
2019-01-15T05:03:27.646Z,1011.55
2019-01-15T05:03:54.761Z,1011.55
2019-01-15T05:04:20.880Z,1011.53
2019-01-15T05:04:46.986Z,1011.54
2019-01-15T05:05:13.111Z,1011.54
2019-01-15T05:05:39.220Z,1011.53
2019-01-15T05:06:05.320Z,1011.54
2019-01-15T05:06:31.449Z,1011.54
2019-01-15T05:06:57.559Z,1011.53
2019-01-15T05:07:23.662Z,1011.52
2019-01-15T05:07:49.841Z,1011.51
2019-01-15T05:08:15.949Z,1011.49
2019-01-15T05:08:42.089Z,1011.45
2019-01-15T05:09:08.194Z,1011.45
2019-01-15T05:09:34.624Z,1011.45
2019-01-15T05:10:00.732Z,1011.41
2019-01-15T05:10:26.895Z,1011.4
2019-01-15T05:10:52.991Z,1011.34
2019-01-15T05:11:19.104Z,1011.42
2019-01-15T05:11:45.213Z,1011.36
2019-01-15T05:12:11.342Z,1011.39
2019-01-15T05:12:37.448Z,1011.39
2019-01-15T05:13:03.574Z,1011.37
2019-01-15T05:13:30.664Z,1011.36
2019-01-15T05:13:56.766Z,1011.36
2019-01-15T05:14:22.905Z,1011.33
2019-01-15T05:14:49.006Z,1011.36
2019-01-15T05:15:15.108Z,1011.35
2019-01-15T05:15:41.226Z,1011.38
2019-01-15T05:16:07.323Z,1011.35
2019-01-15T05:16:33.427Z,1011.34
2019-01-15T05:16:59.532Z,1011.32